createdAt,value
2022-10-09T00:00:47.707Z,100.00
2022-10-09T00:03:17.152Z,100.00
2022-10-09T00:05:45.899Z,100.00
2022-10-09T00:08:15.038Z,100.00
2022-10-09T00:10:43.204Z,100.00
2022-10-09T00:13:11.715Z,100.00
2022-10-09T00:15:40.405Z,100.00
2022-10-09T00:18:08.345Z,100.00
2022-10-09T00:20:37.939Z,100.00
2022-10-09T00:23:06.062Z,100.00
2022-10-09T00:25:36.037Z,100.00
2022-10-09T00:28:05.572Z,100.00
2022-10-09T00:30:33.294Z,100.00
2022-10-09T00:33:01.079Z,100.00
2022-10-09T00:35:28.705Z,100.00
2022-10-09T00:37:56.317Z,100.00
2022-10-09T00:40:25.356Z,100.00
2022-10-09T00:42:58.428Z,100.00
2022-10-09T00:45:27.291Z,100.00
2022-10-09T00:47:58.631Z,100.00
2022-10-09T00:50:31.273Z,100.00
2022-10-09T00:53:01.281Z,100.00
2022-10-09T00:55:30.746Z,100.00
2022-10-09T00:58:01.656Z,100.00
2022-10-09T01:00:29.467Z,100.00
2022-10-09T01:02:57.301Z,100.00
2022-10-09T01:05:34.215Z,100.00
2022-10-09T01:08:10.787Z,100.00
2022-10-09T01:10:42.972Z,100.00
2022-10-09T01:13:23.939Z,100.00
2022-10-09T01:15:55.722Z,100.00
2022-10-09T01:18:29.067Z,100.00
2022-10-09T01:21:02.449Z,100.00
2022-10-09T01:23:43.831Z,100.00
2022-10-09T01:26:26.451Z,100.00
2022-10-09T01:28:58.354Z,100.00
2022-10-09T01:31:30.887Z,100.00
2022-10-09T01:34:00.836Z,100.00
2022-10-09T01:36:30.372Z,100.00
2022-10-09T01:38:59.613Z,100.00
2022-10-09T01:41:27.668Z,100.00
2022-10-09T01:43:56.828Z,100.00
2022-10-09T01:46:28.699Z,100.00
2022-10-09T01:49:10.587Z,100.00
2022-10-09T01:51:45.311Z,100.00
2022-10-09T01:54:15.675Z,100.00
2022-10-09T01:56:48.979Z,100.00
2022-10-09T01:59:19.736Z,100.00
2022-10-09T02:01:49.828Z,100.00
2022-10-09T02:04:19.442Z,100.00
2022-10-09T02:06:48.746Z,100.00
2022-10-09T02:09:19.026Z,100.00
2022-10-09T02:11:52.075Z,100.00
2022-10-09T02:14:21.392Z,100.00
2022-10-09T02:16:55.755Z,100.00
2022-10-09T02:19:28.098Z,100.00
2022-10-09T02:22:00.648Z,100.00
2022-10-09T02:24:29.264Z,100.00
2022-10-09T02:26:58.903Z,100.00
2022-10-09T02:29:27.912Z,100.00
2022-10-09T02:31:55.574Z,100.00
2022-10-09T02:34:23.297Z,100.00
2022-10-09T02:36:51.097Z,100.00
2022-10-09T02:39:18.968Z,100.00
2022-10-09T02:41:46.604Z,100.00
2022-10-09T02:44:14.292Z,100.00
2022-10-09T02:46:43.347Z,100.00
2022-10-09T02:49:11.477Z,100.00
2022-10-09T02:51:39.205Z,100.00
2022-10-09T02:54:07.401Z,100.00
2022-10-09T02:56:38.793Z,100.00
2022-10-09T02:59:07.155Z,100.00
2022-10-09T03:01:35.114Z,100.00
2022-10-09T03:04:04.750Z,100.00
2022-10-09T03:06:32.939Z,100.00
2022-10-09T03:09:00.774Z,100.00
2022-10-09T03:11:28.501Z,100.00
2022-10-09T03:13:56.442Z,100.00
2022-10-09T03:16:25.881Z,100.00
2022-10-09T03:18:54.787Z,100.00
2022-10-09T03:21:25.656Z,100.00
2022-10-09T03:23:54.029Z,100.00
2022-10-09T03:26:24.127Z,100.00
2022-10-09T03:28:53.597Z,100.00
2022-10-09T03:34:11.872Z,100.00
2022-10-09T03:36:41.006Z,100.00
2022-10-09T03:39:09.001Z,100.00
2022-10-09T03:41:36.731Z,100.00
2022-10-09T03:44:04.453Z,100.00
2022-10-09T03:46:32.179Z,100.00
2022-10-09T03:48:59.919Z,100.00
2022-10-09T03:51:27.655Z,100.00
2022-10-09T03:53:56.717Z,100.00
2022-10-09T03:56:24.428Z,100.00
2022-10-09T03:58:52.167Z,100.00
2022-10-09T04:01:19.956Z,100.00
2022-10-09T04:03:47.728Z,100.00
2022-10-09T04:06:15.748Z,100.00
2022-10-09T04:08:43.386Z,100.00
2022-10-09T04:11:12.458Z,100.00
2022-10-09T04:13:40.092Z,100.00
2022-10-09T04:16:12.542Z,100.00
2022-10-09T04:18:40.543Z,100.00
2022-10-09T04:21:08.468Z,100.00
2022-10-09T04:23:36.110Z,100.00
2022-10-09T04:26:03.822Z,100.00
2022-10-09T04:28:33.616Z,100.00
2022-10-09T04:31:01.418Z,100.00
2022-10-09T04:33:29.126Z,100.00
2022-10-09T04:35:57.897Z,100.00
2022-10-09T04:38:26.451Z,100.00
2022-10-09T04:40:58.298Z,100.00
2022-10-09T04:43:26.003Z,100.00
2022-10-09T04:45:55.529Z,100.00
2022-10-09T04:48:23.644Z,100.00
2022-10-09T04:50:51.490Z,100.00
2022-10-09T04:53:19.139Z,100.00
2022-10-09T04:55:46.914Z,100.00
2022-10-09T04:58:15.191Z,100.00
2022-10-09T05:00:43.343Z,100.00
2022-10-09T05:03:12.972Z,100.00
2022-10-09T05:05:40.835Z,100.00
2022-10-09T05:08:08.633Z,100.00
2022-10-09T05:10:36.464Z,100.00
2022-10-09T05:13:04.313Z,100.00
2022-10-09T05:15:32.176Z,100.00
2022-10-09T05:17:59.900Z,100.00
2022-10-09T05:20:28.942Z,100.00
2022-10-09T05:22:56.663Z,100.00
2022-10-09T05:25:24.378Z,100.00
2022-10-09T05:27:52.000Z,100.00
2022-10-09T05:30:19.686Z,100.00
2022-10-09T05:32:47.527Z,100.00
2022-10-09T05:35:15.785Z,100.00
2022-10-09T05:37:46.591Z,100.00
2022-10-09T05:40:14.375Z,100.00
2022-10-09T05:42:42.038Z,100.00
2022-10-09T05:45:11.235Z,100.00
2022-10-09T05:47:38.921Z,100.00
2022-10-09T05:50:07.339Z,100.00
2022-10-09T05:52:36.594Z,100.00
2022-10-09T05:55:06.308Z,100.00
2022-10-09T05:57:34.127Z,100.00
2022-10-09T06:00:01.872Z,100.00
2022-10-09T06:02:29.533Z,100.00
2022-10-09T06:04:57.224Z,100.00
2022-10-09T06:07:24.865Z,100.00
2022-10-09T06:09:52.458Z,100.00
2022-10-09T06:12:21.578Z,100.00
2022-10-09T06:14:49.301Z,100.00
2022-10-09T06:17:17.057Z,100.00
2022-10-09T06:19:44.699Z,100.00
2022-10-09T06:22:12.339Z,100.00
2022-10-09T06:24:40.211Z,100.00
2022-10-09T06:27:07.903Z,100.00
2022-10-09T06:29:36.888Z,100.00
2022-10-09T06:32:04.605Z,100.00
2022-10-09T06:34:32.270Z,100.00
2022-10-09T06:36:59.999Z,100.00
2022-10-09T06:39:27.705Z,100.00
2022-10-09T06:41:55.551Z,100.00
2022-10-09T06:44:23.228Z,100.00
2022-10-09T06:46:52.291Z,100.00
2022-10-09T06:49:20.040Z,100.00
2022-10-09T06:51:47.818Z,100.00
2022-10-09T06:54:17.352Z,100.00
2022-10-09T06:56:45.485Z,100.00
2022-10-09T06:59:13.318Z,100.00
2022-10-09T07:01:41.077Z,100.00
2022-10-09T07:04:11.934Z,100.00
2022-10-09T07:06:41.988Z,100.00
2022-10-09T07:09:11.765Z,100.00
2022-10-09T07:11:43.006Z,100.00
2022-10-09T07:14:12.170Z,100.00
2022-10-09T07:16:41.684Z,100.00
2022-10-09T07:19:12.199Z,100.00
2022-10-09T07:21:41.493Z,100.00
2022-10-09T07:24:09.968Z,100.00
2022-10-09T07:26:40.100Z,100.00
2022-10-09T07:29:09.281Z,100.00
2022-10-09T07:31:37.428Z,100.00
2022-10-09T07:34:06.245Z,100.00
2022-10-09T07:36:35.706Z,100.00
2022-10-09T07:39:04.563Z,100.00
2022-10-09T07:41:32.349Z,100.00
2022-10-09T07:44:00.026Z,100.00
2022-10-09T07:46:33.288Z,100.00
2022-10-09T07:49:01.847Z,100.00
2022-10-09T07:51:30.793Z,100.00
2022-10-09T07:54:00.716Z,100.00
2022-10-09T07:56:30.461Z,100.00
2022-10-09T07:58:59.766Z,100.00
2022-10-09T08:01:28.821Z,100.00
2022-10-09T08:03:57.157Z,100.00
2022-10-09T08:06:25.277Z,100.00
2022-10-09T08:08:54.208Z,100.00
2022-10-09T08:11:24.499Z,100.00
2022-10-09T08:13:52.824Z,100.00
2022-10-09T08:16:21.980Z,99.68
2022-10-09T08:18:50.160Z,100.00
2022-10-09T08:21:19.660Z,99.86
2022-10-09T08:23:47.951Z,100.00
2022-10-09T08:26:16.811Z,100.00
2022-10-09T08:28:50.507Z,100.00
2022-10-09T08:31:18.977Z,96.39
2022-10-09T08:33:46.699Z,98.55
2022-10-09T08:36:16.255Z,95.82
2022-10-09T08:38:48.334Z,94.79
2022-10-09T08:41:26.297Z,93.38
2022-10-09T08:44:01.435Z,92.08
2022-10-09T08:46:35.821Z,91.81
2022-10-09T08:49:06.235Z,89.33
2022-10-09T08:51:39.681Z,88.14
2022-10-09T08:54:16.550Z,88.08
2022-10-09T08:56:44.642Z,89.96
2022-10-09T08:59:13.952Z,90.71
2022-10-09T09:01:48.786Z,87.82
2022-10-09T09:04:47.060Z,87.49
2022-10-09T09:07:29.120Z,86.77
2022-10-09T09:10:06.307Z,85.42
2022-10-09T09:12:45.315Z,83.67
2022-10-09T09:15:30.499Z,83.75
2022-10-09T09:18:10.888Z,82.58
2022-10-09T09:20:50.111Z,82.54
2022-10-09T09:23:17.921Z,79.40
2022-10-09T09:25:46.654Z,82.96
2022-10-09T09:28:19.592Z,78.16
2022-10-09T09:30:52.922Z,81.24
2022-10-09T09:33:26.250Z,83.24
2022-10-09T09:36:07.506Z,78.07
2022-10-09T09:38:43.681Z,79.80
2022-10-09T09:41:22.160Z,77.99
2022-10-09T09:43:49.954Z,79.28
2022-10-09T09:46:24.405Z,76.62
2022-10-09T09:48:53.619Z,78.35
2022-10-09T09:51:29.105Z,76.38
2022-10-09T09:53:59.718Z,79.21
2022-10-09T09:56:53.184Z,76.17
2022-10-09T09:59:36.889Z,79.12
2022-10-09T10:02:14.184Z,75.32
2022-10-09T10:04:51.348Z,78.77
2022-10-09T10:07:29.663Z,73.38
2022-10-09T10:10:08.357Z,73.11
2022-10-09T10:12:41.659Z,71.88
2022-10-09T10:15:19.268Z,75.43
2022-10-09T10:17:49.964Z,74.54
2022-10-09T10:20:18.907Z,72.76
2022-10-09T10:22:52.485Z,72.29
2022-10-09T10:25:23.320Z,72.35
2022-10-09T10:27:57.232Z,71.46
2022-10-09T10:30:25.155Z,73.65
2022-10-09T10:33:00.571Z,73.58
2022-10-09T10:35:32.632Z,69.93
2022-10-09T10:38:06.857Z,70.12
2022-10-09T10:40:37.661Z,70.84
2022-10-09T10:43:15.709Z,70.85
2022-10-09T10:45:56.980Z,69.68
2022-10-09T10:48:28.772Z,69.79
2022-10-09T10:51:05.172Z,67.20
2022-10-09T10:53:49.701Z,71.56
2022-10-09T10:56:23.959Z,69.45
2022-10-09T10:59:01.394Z,67.20
2022-10-09T11:01:36.568Z,65.32
2022-10-09T11:04:36.682Z,59.64
2022-10-09T11:07:13.732Z,63.15
2022-10-09T11:09:51.413Z,66.63
2022-10-09T11:12:46.787Z,59.67
2022-10-09T11:15:22.489Z,62.46
2022-10-09T11:18:00.587Z,61.61
2022-10-09T11:20:49.584Z,60.33
2022-10-09T11:23:30.775Z,63.85
2022-10-09T11:26:05.432Z,59.04
2022-10-09T11:28:38.533Z,62.55
2022-10-09T11:31:16.685Z,57.21
2022-10-09T11:33:48.476Z,59.61
2022-10-09T11:36:25.739Z,60.11
2022-10-09T11:38:59.037Z,60.79
2022-10-09T11:41:28.555Z,59.54
2022-10-09T11:44:09.403Z,59.96
2022-10-09T11:46:47.522Z,54.89
2022-10-09T11:49:25.902Z,58.99
2022-10-09T11:51:59.984Z,60.48
2022-10-09T11:54:28.878Z,59.34
2022-10-09T11:56:58.470Z,59.44
2022-10-09T11:59:30.068Z,56.88
2022-10-09T12:01:59.923Z,55.48
2022-10-09T12:04:53.430Z,56.58
2022-10-09T12:07:30.985Z,53.39
2022-10-09T12:10:03.559Z,56.69
2022-10-09T12:12:32.019Z,57.38
2022-10-09T12:15:11.981Z,54.36
2022-10-09T12:17:49.910Z,52.88
2022-10-09T12:20:21.433Z,55.13
2022-10-09T12:23:14.361Z,54.89
2022-10-09T12:25:44.817Z,53.55
2022-10-09T12:28:22.637Z,54.05
2022-10-09T12:30:52.797Z,54.04
2022-10-09T12:33:26.924Z,53.93
2022-10-09T12:36:06.319Z,55.90
2022-10-09T12:38:35.343Z,56.34
2022-10-09T12:41:06.713Z,54.72
2022-10-09T12:43:36.426Z,50.47
2022-10-09T12:46:04.524Z,52.50
2022-10-09T12:48:38.015Z,52.23
2022-10-09T12:51:16.007Z,51.36
2022-10-09T12:53:49.590Z,48.73
2022-10-09T12:56:22.245Z,52.85
2022-10-09T12:58:51.027Z,50.05
2022-10-09T13:01:20.486Z,49.21
2022-10-09T13:03:55.100Z,53.31
2022-10-09T13:06:24.972Z,51.25
2022-10-09T13:08:56.502Z,50.28
2022-10-09T13:11:29.453Z,49.63
2022-10-09T13:13:57.210Z,47.68
2022-10-09T13:16:25.979Z,48.26
2022-10-09T13:18:58.268Z,50.10
2022-10-09T13:21:30.069Z,49.43
2022-10-09T13:24:10.152Z,43.60
2022-10-09T13:26:39.707Z,50.15
2022-10-09T13:29:08.484Z,48.85
2022-10-09T13:31:37.084Z,46.87
2022-10-09T13:34:12.551Z,43.58
2022-10-09T13:36:40.399Z,48.53
2022-10-09T13:39:14.459Z,47.15
2022-10-09T13:41:43.820Z,46.48
2022-10-09T13:44:11.635Z,43.04
2022-10-09T13:46:39.400Z,44.20
2022-10-09T13:49:07.258Z,45.37
2022-10-09T13:51:36.169Z,46.29
2022-10-09T13:54:04.272Z,44.42
2022-10-09T13:56:33.386Z,47.31
2022-10-09T13:59:01.166Z,43.05
2022-10-09T14:01:28.957Z,45.09
2022-10-09T14:03:56.783Z,41.57
2022-10-09T14:06:24.476Z,44.13
2022-10-09T14:08:52.165Z,43.41
2022-10-09T14:11:19.848Z,44.72
2022-10-09T14:13:48.873Z,42.17
2022-10-09T14:16:16.832Z,45.98
2022-10-09T14:18:44.551Z,44.43
2022-10-09T14:21:15.607Z,47.69
2022-10-09T14:23:43.995Z,45.70
2022-10-09T14:26:11.669Z,46.15
2022-10-09T14:28:39.529Z,46.71
2022-10-09T14:31:09.301Z,48.13
2022-10-09T14:33:37.019Z,46.39
2022-10-09T14:36:09.522Z,46.90
2022-10-09T14:38:38.379Z,47.35
2022-10-09T14:41:06.627Z,46.62
2022-10-09T14:43:34.472Z,42.19
2022-10-09T14:46:03.573Z,42.99
2022-10-09T14:48:32.619Z,43.89
2022-10-09T14:51:04.491Z,45.43
2022-10-09T14:53:32.303Z,43.21
2022-10-09T14:56:02.117Z,46.16
2022-10-09T14:58:31.329Z,45.76
2022-10-09T15:00:59.658Z,42.72
2022-10-09T15:03:29.052Z,43.92
2022-10-09T15:05:59.833Z,46.03
2022-10-09T15:08:27.812Z,45.11
2022-10-09T15:10:57.574Z,44.30
2022-10-09T15:13:25.352Z,45.48
2022-10-09T15:15:53.194Z,45.03
2022-10-09T15:18:20.858Z,45.97
2022-10-09T15:20:48.591Z,46.21
2022-10-09T15:23:17.743Z,48.42
2022-10-09T15:25:49.310Z,46.22
2022-10-09T15:28:17.638Z,46.57
2022-10-09T15:30:46.259Z,48.59
2022-10-09T15:33:14.290Z,49.73
2022-10-09T15:35:41.961Z,47.51
2022-10-09T15:38:15.140Z,48.58
2022-10-09T15:40:46.134Z,50.86
2022-10-09T15:43:14.425Z,52.14
2022-10-09T15:45:42.614Z,53.20
2022-10-09T15:48:15.699Z,52.27
2022-10-09T15:50:46.233Z,54.06
2022-10-09T15:53:14.911Z,51.88
2022-10-09T15:55:45.956Z,50.56
2022-10-09T15:58:14.281Z,48.92
2022-10-09T16:00:44.389Z,48.13
2022-10-09T16:03:12.163Z,49.91
2022-10-09T16:05:40.643Z,51.11
2022-10-09T16:08:08.443Z,50.68
2022-10-09T16:10:36.154Z,52.75
2022-10-09T16:13:05.256Z,54.17
2022-10-09T16:15:32.958Z,53.11
2022-10-09T16:18:00.691Z,54.87
2022-10-09T16:20:28.417Z,55.56
2022-10-09T16:22:56.223Z,57.98
2022-10-09T16:25:23.879Z,56.75
2022-10-09T16:27:51.565Z,58.92
2022-10-09T16:30:20.657Z,60.49
2022-10-09T16:32:48.839Z,58.54
2022-10-09T16:35:17.233Z,60.50
2022-10-09T16:37:45.392Z,59.41
2022-10-09T16:40:13.114Z,59.45
2022-10-09T16:42:41.023Z,59.98
2022-10-09T16:45:10.449Z,58.74
2022-10-09T16:47:40.432Z,58.21
2022-10-09T16:50:09.305Z,57.93
2022-10-09T16:52:37.442Z,58.82
2022-10-09T16:55:05.772Z,62.50
2022-10-09T16:57:33.460Z,62.61
2022-10-09T17:00:03.571Z,60.49
2022-10-09T17:02:31.254Z,61.58
2022-10-09T17:05:00.318Z,62.70
2022-10-09T17:07:27.997Z,61.70
2022-10-09T17:09:55.815Z,65.91
2022-10-09T17:12:23.563Z,69.25
2022-10-09T17:14:51.437Z,70.52
2022-10-09T17:17:19.256Z,71.54
2022-10-09T17:19:47.160Z,74.87
2022-10-09T17:22:16.330Z,76.94
2022-10-09T17:24:44.057Z,75.37
2022-10-09T17:27:11.838Z,78.00
2022-10-09T17:29:39.715Z,78.76
2022-10-09T17:32:09.401Z,78.72
2022-10-09T17:34:42.924Z,81.97
2022-10-09T17:37:11.579Z,83.27
2022-10-09T17:39:43.684Z,84.52
2022-10-09T17:42:12.570Z,85.38
2022-10-09T17:44:40.554Z,86.83
2022-10-09T17:47:08.606Z,88.71
2022-10-09T17:49:36.531Z,89.15
2022-10-09T17:52:04.443Z,90.14
2022-10-09T17:54:32.202Z,89.46
2022-10-09T17:57:01.405Z,90.86
2022-10-09T17:59:29.252Z,91.21
2022-10-09T18:01:56.948Z,93.69
2022-10-09T18:04:24.768Z,93.83
2022-10-09T18:06:52.723Z,93.45
2022-10-09T18:09:21.396Z,95.63
2022-10-09T18:11:49.162Z,96.97
2022-10-09T18:14:18.441Z,95.87
2022-10-09T18:16:46.169Z,96.94
2022-10-09T18:19:15.719Z,97.08
2022-10-09T18:21:45.659Z,97.52
2022-10-09T18:24:13.957Z,98.12
2022-10-09T18:26:41.840Z,97.85
2022-10-09T18:29:09.732Z,99.12
2022-10-09T18:31:38.852Z,100.00
2022-10-09T18:34:06.899Z,99.66
2022-10-09T18:36:35.866Z,100.00
2022-10-09T18:39:07.203Z,100.00
2022-10-09T18:41:35.366Z,100.00
2022-10-09T18:44:03.873Z,100.00
2022-10-09T18:46:36.907Z,100.00
2022-10-09T18:49:09.375Z,100.00
2022-10-09T18:51:39.132Z,100.00
2022-10-09T18:54:07.979Z,100.00
2022-10-09T18:56:37.519Z,100.00
2022-10-09T18:59:08.183Z,100.00
2022-10-09T19:01:36.238Z,100.00
2022-10-09T19:04:04.342Z,100.00
2022-10-09T19:06:33.459Z,100.00
2022-10-09T19:09:01.575Z,100.00
2022-10-09T19:11:30.469Z,100.00
2022-10-09T19:14:00.118Z,100.00
2022-10-09T19:16:28.247Z,100.00
2022-10-09T19:18:56.553Z,100.00
2022-10-09T19:21:24.620Z,100.00
2022-10-09T19:23:54.602Z,100.00
2022-10-09T19:26:23.076Z,100.00
2022-10-09T19:28:50.929Z,100.00
2022-10-09T19:31:19.507Z,100.00
2022-10-09T19:33:47.220Z,100.00
2022-10-09T19:36:15.277Z,100.00
2022-10-09T19:38:43.406Z,100.00
2022-10-09T19:41:14.234Z,100.00
2022-10-09T19:43:42.795Z,100.00
2022-10-09T19:46:14.036Z,100.00
2022-10-09T19:48:41.867Z,100.00
2022-10-09T19:51:11.727Z,100.00
2022-10-09T19:53:39.956Z,100.00
2022-10-09T19:56:12.932Z,100.00
2022-10-09T19:58:41.752Z,100.00
2022-10-09T20:01:11.171Z,100.00
2022-10-09T20:03:39.367Z,100.00
2022-10-09T20:06:08.523Z,100.00
2022-10-09T20:08:36.538Z,100.00
2022-10-09T20:11:05.635Z,100.00
2022-10-09T20:13:36.111Z,100.00
2022-10-09T20:16:06.148Z,100.00
2022-10-09T20:18:34.712Z,100.00
2022-10-09T20:21:02.355Z,100.00
2022-10-09T20:23:29.962Z,100.00
2022-10-09T20:26:01.378Z,100.00
2022-10-09T20:28:31.699Z,100.00
2022-10-09T20:31:06.269Z,100.00
2022-10-09T20:33:34.266Z,100.00
2022-10-09T20:36:02.303Z,100.00
2022-10-09T20:38:29.936Z,100.00
2022-10-09T20:41:03.839Z,100.00
2022-10-09T20:43:31.630Z,100.00
2022-10-09T20:46:00.840Z,100.00
2022-10-09T20:48:28.507Z,100.00
2022-10-09T20:50:56.296Z,100.00
2022-10-09T20:53:24.039Z,100.00
2022-10-09T20:55:51.691Z,100.00
2022-10-09T20:58:19.371Z,100.00
2022-10-09T21:00:47.132Z,100.00
2022-10-09T21:03:16.164Z,100.00
2022-10-09T21:05:44.422Z,100.00
2022-10-09T21:08:12.159Z,100.00
2022-10-09T21:10:43.953Z,100.00
2022-10-09T21:13:11.742Z,100.00
2022-10-09T21:15:43.634Z,100.00
2022-10-09T21:18:11.705Z,100.00
2022-10-09T21:20:42.616Z,100.00
2022-10-09T21:23:11.876Z,100.00
2022-10-09T21:25:40.213Z,100.00
2022-10-09T21:28:07.973Z,100.00
2022-10-09T21:30:41.445Z,100.00
2022-10-09T21:33:09.655Z,100.00
2022-10-09T21:35:41.477Z,100.00
2022-10-09T21:38:12.724Z,100.00
2022-10-09T21:40:40.472Z,100.00
2022-10-09T21:43:08.844Z,100.00
2022-10-09T21:45:36.546Z,100.00
2022-10-09T21:48:04.690Z,100.00
2022-10-09T21:50:33.264Z,100.00
2022-10-09T21:53:02.464Z,100.00
2022-10-09T21:55:30.142Z,100.00
2022-10-09T21:57:57.782Z,100.00
2022-10-09T22:00:25.613Z,100.00
2022-10-09T22:02:53.545Z,100.00
2022-10-09T22:05:21.199Z,100.00
2022-10-09T22:07:48.827Z,100.00
2022-10-09T22:10:17.970Z,100.00
2022-10-09T22:12:45.713Z,100.00
2022-10-09T22:15:13.503Z,100.00
2022-10-09T22:17:41.282Z,100.00
2022-10-09T22:20:09.829Z,100.00
2022-10-09T22:22:37.609Z,100.00
2022-10-09T22:25:06.061Z,100.00
2022-10-09T22:27:35.134Z,100.00
2022-10-09T22:30:02.852Z,100.00
2022-10-09T22:32:30.513Z,100.00
2022-10-09T22:34:58.189Z,100.00
2022-10-09T22:37:26.100Z,100.00
2022-10-09T22:39:53.803Z,100.00
2022-10-09T22:42:21.562Z,100.00
2022-10-09T22:44:50.588Z,100.00
2022-10-09T22:47:18.246Z,100.00
2022-10-09T22:49:46.148Z,100.00
2022-10-09T22:52:13.851Z,100.00
2022-10-09T22:54:41.643Z,100.00
2022-10-09T22:57:09.353Z,100.00
2022-10-09T22:59:36.966Z,100.00
2022-10-09T23:02:06.163Z,100.00
2022-10-09T23:04:33.856Z,100.00
2022-10-09T23:07:02.115Z,100.00
2022-10-09T23:09:31.564Z,100.00
2022-10-09T23:12:00.638Z,100.00
2022-10-09T23:14:28.326Z,100.00
2022-10-09T23:16:56.014Z,100.00
2022-10-09T23:19:25.080Z,100.00
2022-10-09T23:21:52.686Z,100.00
2022-10-09T23:24:20.452Z,100.00
2022-10-09T23:26:52.027Z,100.00
2022-10-09T23:29:21.388Z,100.00
2022-10-09T23:31:52.349Z,100.00
2022-10-09T23:34:20.090Z,100.00
2022-10-09T23:36:49.124Z,100.00
2022-10-09T23:39:17.267Z,100.00
2022-10-09T23:41:44.988Z,100.00
2022-10-09T23:44:12.865Z,100.00
2022-10-09T23:46:40.591Z,100.00
2022-10-09T23:49:08.445Z,100.00
2022-10-09T23:51:36.190Z,100.00
2022-10-09T23:54:05.274Z,100.00
